This is the latest recevied weather packets stored in our database for station/object KC2WGU. If no packets are shown the sender has not sent any weather packets the latest 10 day(s).
| Time | Temp. | Humidity | Pressure | Rain* | Wind** | Luminosity | Snow |
|---|---|---|---|---|---|---|---|
| 1787854218 | 24.44° C | 73% | 1012.4 hPa | 0 mm | - | 329 W/m² | - |
| 1787853618 | 24.44° C | 74% | 1012.4 hPa | 0 mm | - | 329 W/m² | - |
| 1787853018 | 24.44° C | 76% | 1012.5 hPa | 0 mm | - | 329 W/m² | - |
| 1787852418 | 24.44° C | 76% | 1012.7 hPa | 0 mm | - | 329 W/m² | - |
| 1787851818 | 24.44° C | 75% | 1012.6 hPa | 0 mm | - | 329 W/m² | - |
| 1787851218 | 23.89° C | 75% | 1012.7 hPa | 0 mm | - | 329 W/m² | - |
| 1787850618 | 24.44° C | 75% | 1012.7 hPa | 0 mm | - | 329 W/m² | - |
| 1787848818 | 24.44° C | 77% | 1013.1 hPa | 0 mm | - | 329 W/m² | - |
| 1787848219 | 23.89° C | 78% | 1013.2 hPa | 0 mm | - | 329 W/m² | - |
| 1787847618 | 23.89° C | 77% | 1013.1 hPa | 0 mm | - | 329 W/m² | - |
| 1787847018 | 23.89° C | 75% | 1013.1 hPa | 0 mm | - | 329 W/m² | - |
| 1787845218 | 23.33° C | 79% | 1013.1 hPa | 0 mm | - | 329 W/m² | - |
| 1787844619 | 23.33° C | 80% | 1013.5 hPa | 0 mm | - | 329 W/m² | - |
| 1787844018 | 22.78° C | 81% | 1013.5 hPa | 0 mm | - | 329 W/m² | - |
| 1787843418 | 22.78° C | 81% | 1013.6 hPa | 0 mm | - | 329 W/m² | - |
| 1787840419 | 22.22° C | 83% | 1013.8 hPa | 0 mm | - | 329 W/m² | - |
| 1787839819 | 21.67° C | 84% | 1013.9 hPa | 0 mm | - | 329 W/m² | - |
| 1787838019 | 21.67° C | 84% | 1013.9 hPa | 0 mm | - | 329 W/m² | - |
| 1787837419 | 21.67° C | 84% | 1013.7 hPa | 0 mm | - | 329 W/m² | - |
| 1787832619 | 17.78° C | 95% | 1013.6 hPa | 0.51 mm | - | 329 W/m² | - |
| 1787829619 | 16.11° C | 93% | 1013.9 hPa | 0.76 mm | - | 329 W/m² | - |
| 1787829018 | 16.11° C | 92% | 1013.8 hPa | 0.25 mm | - | 329 W/m² | - |
| 1787828418 | 16.11° C | 92% | 1013.8 hPa | 0.25 mm | - | 329 W/m² | - |
| 1787827818 | 16.11° C | 91% | 1013.8 hPa | 0 mm | - | 329 W/m² | - |
| 1787827218 | 16.11° C | 92% | 1013.8 hPa | 0 mm | - | 329 W/m² | - |
* Rain latest hour (hover to see other rain measurements)
** Current wind speed in m/s (hover to see current wind gust speed)